メインページ
METAR-TAF:

METAR-TAF

空港 :

テグシガルパ, ホンジュラス

トンコンティン国際空港

緯度: 14-03N, 経度: 087-13W, 海抜: 994m

現時点の気象観測

当レポートは36分前の22:00(UTC)に作成
東/北東の風 10kt
気温 26°C
湿度 54%
気圧 1018 hPa
視程10km以上
高度3000ftの雲は散在している, 塔状積雲.
高度23000ftの千切れ雲あり

METAR: MHTG 262200Z 06010KT 9999 SCT030TCU BKN230 26/16 Q1018 A3006 NOSIG

時間: 16:36 (22:36 UTC)

予報

当レポートは6時間21分前の16:15(UTC)に作成
予報は26日の 18時(UTC)から 27日の 18時(UTC)まで有効
北/北東の風 10kt
視程10km以上
高度2800ftの雲は散在している
26日の 23時(UTC)から 27日の 01時(UTC)まで徐々に
視程: 8000m
高度2800ftの千切れ雲あり
高度8000ftの雲は散在している
霧雨
27日の 04時(UTC)から 27日の 06時(UTC)まで徐々に
の風 kt
視程10km以上
高度700ftの雲はほとんどない
高度2600ftの千切れ雲あり
27日の 13時(UTC)から 27日の 15時(UTC)まで徐々に
の風 8kt
視程10km以上
高度2800ftの雲は散在している

TAF: MHTG 261615Z 2618/2718 02010KT 9999 SCT028 TX29/2621Z TN19/2712Z BECMG 2623/2701 8000 DZ BKN028 SCT080 BECMG 2704/2706 00000KT 9999 NSW FEW007 BKN026 BECMG 2713/2715 01008KT 9999 SCT028

4,000以上の空港の気象観測と天気予報(METAR報とTAF報)

利用可能な観測所は地図上に黄色い丸と赤い丸で示す。

丸の上にカーソルを重ねると観測所名を参照できる。

次にクリックすると気象観測と天気予報を参照できる。

マップの切り替え:黒色「×」印の緑ボタンをクリックして拡大、「-」印の緑ボタンをクリックして縮小、緑色の三角印をクリックして隣りの地図に切り替え


METAR-TAF: